createdAt,value
2022-11-26T00:00:52.600Z,4.80
2022-11-26T00:03:57.002Z,4.80
2022-11-26T00:07:01.497Z,4.80
2022-11-26T00:10:09.527Z,4.70
2022-11-26T00:13:18.165Z,4.70
2022-11-26T00:16:21.382Z,4.60
2022-11-26T00:19:24.522Z,4.60
2022-11-26T00:22:32.797Z,4.70
2022-11-26T00:25:42.416Z,4.70
2022-11-26T00:28:51.514Z,4.70
2022-11-26T00:31:54.721Z,4.70
2022-11-26T00:34:57.831Z,4.60
2022-11-26T00:38:02.307Z,4.60
2022-11-26T00:41:05.552Z,4.50
2022-11-26T00:44:17.710Z,4.50
2022-11-26T00:47:20.798Z,4.60
2022-11-26T00:50:26.359Z,4.50
2022-11-26T00:53:30.867Z,4.50
2022-11-26T00:56:37.988Z,4.50
2022-11-26T00:59:41.469Z,4.50
2022-11-26T01:02:44.834Z,4.50
2022-11-26T01:05:51.376Z,4.40
2022-11-26T01:08:55.924Z,4.40
2022-11-26T01:11:59.769Z,4.50
2022-11-26T01:15:02.911Z,4.50
2022-11-26T01:18:13.160Z,4.50
2022-11-26T01:21:16.826Z,4.50
2022-11-26T01:24:21.321Z,4.50
2022-11-26T01:27:24.419Z,4.50
2022-11-26T01:30:31.018Z,4.50
2022-11-26T01:33:34.125Z,4.50
2022-11-26T01:36:39.572Z,4.40
2022-11-26T01:39:44.092Z,4.40
2022-11-26T01:42:52.420Z,4.40
2022-11-26T01:45:56.296Z,4.40
2022-11-26T01:49:18.065Z,4.40
2022-11-26T01:52:24.967Z,4.40
2022-11-26T01:55:35.881Z,4.40
2022-11-26T01:58:43.372Z,4.40
2022-11-26T02:01:46.861Z,4.40
2022-11-26T02:05:02.035Z,4.30
2022-11-26T02:08:05.738Z,4.20
2022-11-26T02:11:18.665Z,4.20
2022-11-26T02:14:24.414Z,4.20
2022-11-26T02:17:35.214Z,4.30
2022-11-26T02:20:52.418Z,4.30
2022-11-26T02:24:28.674Z,4.30
2022-11-26T02:27:56.720Z,4.30
2022-11-26T02:31:10.731Z,4.30
2022-11-26T02:34:19.366Z,4.30
2022-11-26T02:37:26.736Z,4.30
2022-11-26T02:40:30.268Z,4.30
2022-11-26T02:43:35.682Z,4.30
2022-11-26T02:46:41.747Z,4.20
2022-11-26T02:49:47.390Z,4.20
2022-11-26T02:52:54.473Z,4.20
2022-11-26T02:56:04.618Z,4.20
2022-11-26T02:59:08.209Z,4.30
2022-11-26T03:02:17.155Z,4.30
2022-11-26T03:05:21.190Z,4.20
2022-11-26T03:08:25.234Z,4.10
2022-11-26T03:11:28.431Z,4.10
2022-11-26T03:14:31.546Z,4.20
2022-11-26T03:17:36.033Z,4.30
2022-11-26T03:20:39.178Z,4.40
2022-11-26T03:23:42.289Z,4.40
2022-11-26T03:26:45.434Z,4.40
2022-11-26T03:29:48.586Z,4.50
2022-11-26T03:32:53.023Z,4.40
2022-11-26T03:35:56.122Z,4.50
2022-11-26T03:38:59.277Z,4.50
2022-11-26T03:42:02.388Z,4.50
2022-11-26T03:45:06.422Z,4.60
2022-11-26T03:48:10.853Z,4.60
2022-11-26T03:51:13.950Z,4.70
2022-11-26T03:54:17.153Z,4.70
2022-11-26T03:57:20.271Z,4.70
2022-11-26T04:00:23.715Z,4.80
2022-11-26T04:03:28.458Z,4.80
2022-11-26T04:06:31.584Z,4.70
2022-11-26T04:09:34.818Z,4.80
2022-11-26T04:12:38.159Z,4.80
2022-11-26T04:15:41.245Z,4.70
2022-11-26T04:18:45.852Z,4.80
2022-11-26T04:21:48.960Z,4.80
2022-11-26T04:24:52.033Z,4.80
2022-11-26T04:27:55.125Z,4.80
2022-11-26T04:30:58.226Z,4.90
2022-11-26T04:34:02.708Z,4.90
2022-11-26T04:37:05.815Z,4.90
2022-11-26T04:40:10.151Z,4.90
2022-11-26T04:43:13.254Z,4.90
2022-11-26T04:46:16.396Z,4.80
2022-11-26T04:49:20.894Z,4.80
2022-11-26T04:52:23.982Z,4.80
2022-11-26T04:55:27.070Z,4.90
2022-11-26T04:58:30.168Z,4.90
2022-11-26T05:01:33.386Z,4.90
2022-11-26T05:04:38.140Z,4.80
2022-11-26T05:07:41.644Z,4.80
2022-11-26T05:10:44.836Z,4.80
2022-11-26T05:13:47.917Z,4.70
2022-11-26T05:16:51.070Z,4.60
2022-11-26T05:19:55.583Z,4.60
2022-11-26T05:22:58.679Z,4.60
2022-11-26T05:26:01.782Z,4.60
2022-11-26T05:29:04.961Z,4.50
2022-11-26T05:32:08.173Z,4.50
2022-11-26T05:35:12.710Z,4.40
2022-11-26T05:38:15.793Z,4.40
2022-11-26T05:41:18.995Z,4.40
2022-11-26T05:44:22.126Z,4.40
2022-11-26T05:47:25.230Z,4.30
2022-11-26T05:50:29.748Z,4.20
2022-11-26T05:53:32.914Z,4.20
2022-11-26T05:56:36.043Z,4.30
2022-11-26T05:59:39.153Z,4.40
2022-11-26T06:02:42.378Z,4.40
2022-11-26T06:05:47.204Z,4.40
2022-11-26T06:08:50.295Z,4.40
2022-11-26T06:11:53.867Z,4.40
2022-11-26T06:14:57.043Z,4.40
2022-11-26T06:18:00.162Z,4.50
2022-11-26T06:21:06.482Z,4.50
2022-11-26T06:24:09.922Z,4.60
2022-11-26T06:27:12.997Z,4.50
2022-11-26T06:30:16.366Z,4.50
2022-11-26T06:33:19.459Z,4.50
2022-11-26T06:36:24.546Z,4.50
2022-11-26T06:39:27.848Z,4.50
2022-11-26T06:42:30.943Z,4.50
2022-11-26T06:45:35.633Z,4.60
2022-11-26T06:48:39.588Z,4.70
2022-11-26T06:51:44.131Z,4.80
2022-11-26T06:54:47.258Z,4.80
2022-11-26T06:57:52.247Z,4.80
2022-11-26T07:00:55.545Z,4.90
2022-11-26T07:03:59.342Z,5.10
2022-11-26T07:07:03.842Z,5.10
2022-11-26T07:10:08.000Z,5.30
2022-11-26T07:13:11.134Z,5.30
2022-11-26T07:16:14.696Z,5.40
2022-11-26T07:19:17.829Z,5.50
2022-11-26T07:22:22.450Z,5.50
2022-11-26T07:25:25.542Z,5.60
2022-11-26T07:28:29.717Z,5.70
2022-11-26T07:31:32.884Z,5.80
2022-11-26T07:34:36.132Z,5.90
2022-11-26T07:37:40.672Z,6.00
2022-11-26T07:40:43.761Z,6.10
2022-11-26T07:43:47.756Z,6.10
2022-11-26T07:46:50.887Z,6.20
2022-11-26T07:49:54.059Z,6.20
2022-11-26T07:52:58.520Z,6.30
2022-11-26T07:56:04.365Z,6.40
2022-11-26T07:59:07.474Z,6.50
2022-11-26T08:02:15.213Z,6.70
2022-11-26T08:05:18.417Z,6.90
2022-11-26T08:08:22.943Z,7.10
2022-11-26T08:11:27.665Z,7.30
2022-11-26T08:14:30.851Z,7.50
2022-11-26T08:17:33.939Z,7.80
2022-11-26T08:20:37.049Z,8.00
2022-11-26T08:23:41.743Z,8.10
2022-11-26T08:26:45.715Z,8.30
2022-11-26T08:29:48.850Z,8.50
2022-11-26T08:32:51.944Z,8.80
2022-11-26T08:36:06.509Z,9.00
2022-11-26T08:39:14.694Z,9.20
2022-11-26T08:42:17.840Z,9.50
2022-11-26T08:45:20.963Z,9.70
2022-11-26T08:48:29.130Z,9.80
2022-11-26T08:51:35.032Z,9.90
2022-11-26T08:54:44.518Z,9.90
2022-11-26T08:57:48.556Z,9.90
2022-11-26T09:00:51.639Z,10.00
2022-11-26T09:03:56.759Z,10.10
2022-11-26T09:06:59.863Z,10.20
2022-11-26T09:10:04.749Z,10.30
2022-11-26T09:13:07.834Z,10.50
2022-11-26T09:16:11.104Z,10.60
2022-11-26T09:19:15.705Z,10.80
2022-11-26T09:22:18.847Z,10.90
2022-11-26T09:25:23.359Z,11.00
2022-11-26T09:28:26.519Z,11.30
2022-11-26T09:31:29.735Z,11.60
2022-11-26T09:34:33.065Z,11.80
2022-11-26T09:37:36.209Z,12.00
2022-11-26T09:40:50.910Z,12.00
2022-11-26T09:44:22.928Z,12.00
2022-11-26T09:47:29.008Z,12.20
2022-11-26T09:50:35.504Z,12.40
2022-11-26T09:53:43.752Z,12.60
2022-11-26T09:56:51.595Z,12.90
2022-11-26T09:59:56.734Z,13.00
2022-11-26T10:03:00.448Z,13.10
2022-11-26T10:06:08.636Z,13.40
2022-11-26T10:09:30.673Z,13.40
2022-11-26T10:13:11.221Z,13.50
2022-11-26T10:16:22.502Z,13.50
2022-11-26T10:19:33.195Z,13.60
2022-11-26T10:22:40.639Z,13.40
2022-11-26T10:25:48.004Z,13.30
2022-11-26T10:28:58.047Z,13.30
2022-11-26T10:32:06.393Z,13.20
2022-11-26T10:35:16.376Z,13.20
2022-11-26T10:38:19.517Z,13.40
2022-11-26T10:41:24.662Z,13.60
2022-11-26T10:44:40.417Z,13.90
2022-11-26T10:47:43.940Z,14.20
2022-11-26T10:51:00.674Z,14.40
2022-11-26T10:54:07.550Z,14.60
2022-11-26T10:57:15.378Z,15.00
2022-11-26T11:00:42.058Z,15.40
2022-11-26T11:04:08.774Z,16.20
2022-11-26T11:07:30.713Z,16.70
2022-11-26T11:10:34.597Z,16.40
2022-11-26T11:13:42.511Z,16.00
2022-11-26T11:16:47.205Z,15.60
2022-11-26T11:19:50.499Z,15.20
2022-11-26T11:23:01.320Z,14.90
2022-11-26T11:26:06.377Z,15.70
2022-11-26T11:29:26.503Z,17.30
2022-11-26T11:32:35.221Z,18.00
2022-11-26T11:35:38.408Z,19.20
2022-11-26T11:38:48.599Z,21.50
2022-11-26T11:41:51.846Z,21.60
2022-11-26T11:44:55.307Z,21.80
2022-11-26T11:48:05.648Z,22.40
2022-11-26T11:51:17.900Z,23.40
2022-11-26T11:54:24.907Z,25.10
2022-11-26T11:57:49.764Z,25.70
2022-11-26T12:00:57.146Z,24.30
2022-11-26T12:04:35.379Z,23.00
2022-11-26T12:07:40.873Z,21.50
2022-11-26T12:10:54.258Z,20.10
2022-11-26T12:14:02.761Z,18.90
2022-11-26T12:17:11.990Z,18.00
2022-11-26T12:20:23.531Z,17.70
2022-11-26T12:23:33.461Z,18.10
2022-11-26T12:26:40.526Z,17.90
2022-11-26T12:29:48.240Z,17.20
2022-11-26T12:32:56.115Z,16.90
2022-11-26T12:36:07.834Z,16.50
2022-11-26T12:39:19.093Z,16.20
2022-11-26T12:42:29.345Z,16.50
2022-11-26T12:45:42.459Z,18.20
2022-11-26T12:48:55.998Z,18.20
2022-11-26T12:52:12.805Z,17.70
2022-11-26T12:55:21.667Z,17.20
2022-11-26T12:58:36.418Z,16.60
2022-11-26T13:01:42.562Z,15.80
2022-11-26T13:04:45.754Z,15.10
2022-11-26T13:08:14.718Z,14.70
2022-11-26T13:11:32.891Z,14.40
2022-11-26T13:14:45.700Z,14.00
2022-11-26T13:17:50.961Z,13.60
2022-11-26T13:21:11.651Z,13.50
2022-11-26T13:24:40.791Z,13.20
2022-11-26T13:28:00.345Z,12.80
2022-11-26T13:31:18.347Z,13.60
2022-11-26T13:34:34.375Z,14.10
2022-11-26T13:38:05.001Z,14.20
2022-11-26T13:41:23.635Z,14.80
2022-11-26T13:44:57.275Z,15.20
2022-11-26T13:48:06.689Z,14.70
2022-11-26T13:51:15.635Z,14.20
2022-11-26T13:54:24.353Z,13.80
2022-11-26T13:57:36.407Z,13.60
2022-11-26T14:00:39.659Z,15.20
2022-11-26T14:03:47.435Z,16.10
2022-11-26T14:07:20.742Z,16.60
2022-11-26T14:10:44.391Z,17.00
2022-11-26T14:14:23.765Z,16.80
2022-11-26T14:17:31.284Z,16.20
2022-11-26T14:21:14.290Z,15.80
2022-11-26T14:25:04.224Z,15.20
2022-11-26T14:28:11.332Z,14.60
2022-11-26T14:31:22.274Z,14.10
2022-11-26T14:34:32.343Z,13.70
2022-11-26T14:40:59.378Z,13.10
2022-11-26T14:44:08.344Z,12.80
2022-11-26T14:47:19.880Z,12.40
2022-11-26T14:50:26.807Z,12.10
2022-11-26T14:53:33.242Z,11.80
2022-11-26T14:56:46.169Z,11.60
2022-11-26T15:00:00.797Z,11.40
2022-11-26T15:03:19.868Z,11.20
2022-11-26T15:06:28.249Z,11.00
2022-11-26T15:09:31.462Z,10.80
2022-11-26T15:12:36.486Z,10.70
2022-11-26T15:15:50.676Z,10.60
2022-11-26T15:18:56.843Z,10.40
2022-11-26T15:22:01.366Z,10.30
2022-11-26T15:25:05.528Z,10.20
2022-11-26T15:28:19.368Z,10.20
2022-11-26T15:31:22.605Z,10.10
2022-11-26T15:34:28.799Z,10.10
2022-11-26T15:37:31.931Z,10.00
2022-11-26T15:40:46.773Z,10.10
2022-11-26T15:43:52.046Z,10.00
2022-11-26T15:46:57.964Z,9.90
2022-11-26T15:50:02.835Z,9.90
2022-11-26T15:53:09.142Z,9.70
2022-11-26T15:56:19.447Z,9.70
2022-11-26T15:59:24.508Z,9.70
2022-11-26T16:02:31.274Z,9.60
2022-11-26T16:05:38.565Z,9.50
2022-11-26T16:08:59.513Z,9.40
2022-11-26T16:12:03.055Z,9.40
2022-11-26T16:15:20.944Z,9.30
2022-11-26T16:18:29.858Z,9.20
2022-11-26T16:21:35.938Z,9.10
2022-11-26T16:24:43.775Z,9.10
2022-11-26T16:28:04.033Z,9.00
2022-11-26T16:31:08.863Z,8.80
2022-11-26T16:34:12.805Z,8.80
2022-11-26T16:37:23.359Z,8.70
2022-11-26T16:40:27.430Z,8.60
2022-11-26T16:43:30.964Z,8.60
2022-11-26T16:46:37.178Z,8.50
2022-11-26T16:49:40.765Z,8.50
2022-11-26T16:52:46.544Z,8.40
2022-11-26T16:55:50.828Z,8.40
2022-11-26T16:58:54.961Z,8.30
2022-11-26T17:01:59.277Z,8.30
2022-11-26T17:05:03.045Z,8.20
2022-11-26T17:08:11.227Z,8.10
2022-11-26T17:11:14.803Z,8.00
2022-11-26T17:14:20.667Z,7.90
2022-11-26T17:17:26.780Z,7.80
2022-11-26T17:20:30.967Z,7.80
2022-11-26T17:23:37.438Z,7.80
2022-11-26T17:26:40.923Z,7.70
2022-11-26T17:29:46.747Z,7.70
2022-11-26T17:32:51.247Z,7.60
2022-11-26T17:35:54.725Z,7.70
2022-11-26T17:38:59.454Z,7.70
2022-11-26T17:42:03.014Z,7.70
2022-11-26T17:45:07.683Z,7.50
2022-11-26T17:48:13.267Z,7.40
2022-11-26T17:51:16.964Z,7.40
2022-11-26T17:54:22.126Z,7.30
2022-11-26T17:57:26.006Z,7.30
2022-11-26T18:00:31.125Z,7.20
2022-11-26T18:03:34.764Z,7.20
2022-11-26T18:06:50.305Z,7.20
2022-11-26T18:09:57.851Z,7.20
2022-11-26T18:13:03.715Z,7.10
2022-11-26T18:16:08.321Z,7.00
2022-11-26T18:19:13.335Z,6.90
2022-11-26T18:22:18.667Z,6.90
2022-11-26T18:25:24.011Z,6.90
2022-11-26T18:28:28.787Z,6.80
2022-11-26T18:31:37.972Z,6.80
2022-11-26T18:34:43.306Z,6.70
2022-11-26T18:37:47.105Z,6.80
2022-11-26T18:41:02.364Z,6.80
2022-11-26T18:44:06.198Z,6.70
2022-11-26T18:47:10.428Z,6.60
2022-11-26T18:50:14.644Z,6.60
2022-11-26T18:53:18.191Z,6.60
2022-11-26T18:56:27.253Z,6.50
2022-11-26T18:59:31.123Z,6.40
2022-11-26T19:02:36.812Z,6.40
2022-11-26T19:05:41.756Z,6.30
2022-11-26T19:08:46.133Z,6.30
2022-11-26T19:11:54.417Z,6.30
2022-11-26T19:14:58.280Z,6.30
2022-11-26T19:18:02.962Z,6.20
2022-11-26T19:21:08.002Z,6.20
2022-11-26T19:24:14.723Z,6.20
2022-11-26T19:27:20.711Z,6.20
2022-11-26T19:30:25.413Z,6.10
2022-11-26T19:33:30.168Z,6.10
2022-11-26T19:36:35.503Z,6.00
2022-11-26T19:39:41.046Z,6.00
2022-11-26T19:42:47.714Z,6.00
2022-11-26T19:45:52.256Z,6.00
2022-11-26T19:48:58.816Z,6.00
2022-11-26T19:52:03.688Z,6.00
2022-11-26T19:55:08.393Z,5.90
2022-11-26T19:58:23.136Z,5.90
2022-11-26T20:01:30.792Z,5.80
2022-11-26T20:04:37.899Z,5.80
2022-11-26T20:07:42.406Z,5.80
2022-11-26T20:10:49.910Z,5.80
2022-11-26T20:13:56.811Z,5.70
2022-11-26T20:17:02.104Z,5.70
2022-11-26T20:20:06.731Z,5.60
2022-11-26T20:23:11.016Z,5.60
2022-11-26T20:26:19.190Z,5.60
2022-11-26T20:29:25.805Z,5.60
2022-11-26T20:32:30.084Z,5.60
2022-11-26T20:35:33.907Z,5.50
2022-11-26T20:38:41.244Z,5.50
2022-11-26T20:41:47.174Z,5.50
2022-11-26T20:44:52.818Z,5.50
2022-11-26T20:47:58.503Z,5.50
2022-11-26T20:51:04.393Z,5.40
2022-11-26T20:54:08.113Z,5.40
2022-11-26T20:57:14.882Z,5.40
2022-11-26T21:00:27.178Z,5.40
2022-11-26T21:03:32.762Z,5.40
2022-11-26T21:06:36.681Z,5.30
2022-11-26T21:09:40.989Z,5.30
2022-11-26T21:12:44.480Z,5.30
2022-11-26T21:15:50.429Z,5.30
2022-11-26T21:18:55.423Z,5.30
2022-11-26T21:21:58.681Z,5.30
2022-11-26T21:25:01.872Z,5.30
2022-11-26T21:28:06.178Z,5.30
2022-11-26T21:31:15.150Z,5.30
2022-11-26T21:34:18.713Z,5.30
2022-11-26T21:37:23.646Z,5.20
2022-11-26T21:40:28.158Z,5.30
2022-11-26T21:49:36.506Z,5.30
2022-11-26T21:52:40.355Z,5.40
2022-11-26T21:59:53.226Z,5.40
2022-11-26T22:02:57.872Z,5.40
2022-11-26T22:06:01.019Z,5.40
2022-11-26T22:09:05.070Z,5.40
2022-11-26T22:12:11.280Z,5.30
2022-11-26T22:15:14.548Z,5.40
2022-11-26T22:18:19.154Z,5.30
2022-11-26T22:21:26.067Z,5.30
2022-11-26T22:24:29.186Z,5.20
2022-11-26T22:27:32.518Z,5.10
2022-11-26T22:30:36.781Z,5.10
2022-11-26T22:33:41.539Z,5.00
2022-11-26T22:36:45.584Z,4.90
2022-11-26T22:39:53.509Z,4.90
2022-11-26T22:42:58.743Z,4.80
2022-11-26T22:46:04.722Z,4.80
2022-11-26T22:49:13.108Z,4.70
2022-11-26T22:52:16.198Z,4.70
2022-11-26T22:55:19.461Z,4.60
2022-11-26T22:58:23.889Z,4.60
2022-11-26T23:01:28.608Z,4.60
2022-11-26T23:04:33.115Z,4.60
2022-11-26T23:07:36.299Z,4.60
2022-11-26T23:10:39.848Z,4.50
2022-11-26T23:13:43.835Z,4.40
2022-11-26T23:16:47.028Z,4.40
2022-11-26T23:19:51.701Z,4.30
2022-11-26T23:22:55.101Z,4.40
2022-11-26T23:25:58.344Z,4.30
2022-11-26T23:29:02.986Z,4.30
2022-11-26T23:32:06.115Z,4.30
2022-11-26T23:35:11.101Z,4.30
2022-11-26T23:38:14.276Z,4.30
2022-11-26T23:41:17.732Z,4.30
2022-11-26T23:44:20.964Z,4.30
2022-11-26T23:47:24.230Z,4.30
2022-11-26T23:50:30.580Z,4.30
2022-11-26T23:53:35.027Z,4.30
2022-11-26T23:56:38.123Z,4.40
2022-11-26T23:59:41.664Z,4.40
